Time;durP1;ratioP1;P1;durP2;ratioP2;P2;SDS_P1;SDS_P2;PMS_P1;PMS_P2;Temp;Humidity;BMP_temperature;BMP_pressure;BME280_temperature;BME280_humidity;BME280_pressure;Samples;Min_cycle;Max_cycle;Signal;HPM_P1;HPM_P2
2023/06/19 00:00:12;;;;;;;10.45;8.50;;;;;;;24.48;40.15;100279.63;685454;28;1174;-80
2023/06/19 00:00:32;;;;;;;10.30;8.63;;;;;;;24.46;40.16;100276.16;685175;28;1334;-80
2023/06/19 00:00:53;;;;;;;10.82;9.10;;;;;;;24.47;40.20;100267.22;685387;28;1175;-81
2023/06/19 00:01:14;;;;;;;10.85;9.15;;;;;;;24.51;40.11;100268.84;685353;28;1091;-80
2023/06/19 00:01:35;;;;;;;10.17;8.80;;;;;;;24.51;40.25;100280.38;690519;28;1347;-80
2023/06/19 00:01:56;;;;;;;9.85;8.70;;;;;;;24.46;40.29;100271.69;690926;28;814;-81
2023/06/19 00:02:16;;;;;;;9.98;8.75;;;;;;;24.49;40.42;100276.91;687953;28;1298;-81
2023/06/19 00:02:37;;;;;;;10.70;8.60;;;;;;;24.44;40.53;100272.66;687919;28;1091;-80
2023/06/19 00:02:58;;;;;;;11.30;8.65;;;;;;;24.43;40.37;100270.94;685553;28;1196;-81
2023/06/19 00:03:19;;;;;;;11.63;8.98;;;;;;;24.46;40.48;100278.84;687931;28;1152;-80
2023/06/19 00:03:40;;;;;;;11.20;9.00;;;;;;;24.46;40.42;100273.50;690759;28;964;-80
2023/06/19 00:04:01;;;;;;;10.73;8.90;;;;;;;24.39;40.59;100267.47;690937;28;1106;-81
2023/06/19 00:04:22;;;;;;;9.75;8.63;;;;;;;24.35;40.57;100266.72;690795;28;1094;-81
2023/06/19 00:04:42;;;;;;;10.75;8.85;;;;;;;24.43;40.65;100278.94;690591;28;1104;-81
2023/06/19 00:05:03;;;;;;;11.38;8.93;;;;;;;24.44;40.57;100281.56;690917;28;1342;-81
2023/06/19 00:05:25;;;;;;;11.30;8.60;;;;;;;24.43;40.66;100273.59;688079;28;1205;-80
2023/06/19 00:05:46;;;;;;;9.93;8.25;;;;;;;24.46;40.77;100284.16;685385;28;1411;-81
2023/06/19 00:06:07;;;;;;;12.65;8.13;;;;;;;24.36;40.61;100265.78;690797;28;1207;-81
2023/06/19 00:06:28;;;;;;;13.03;8.43;;;;;;;24.38;40.82;100271.97;688144;28;1069;-80
2023/06/19 00:06:49;;;;;;;13.00;8.30;;;;;;;24.33;40.51;100268.59;692948;28;1247;-80
2023/06/19 00:07:09;;;;;;;9.40;8.15;;;;;;;24.35;40.62;100266.72;693507;28;1942;-80
2023/06/19 00:07:30;;;;;;;9.30;7.97;;;;;;;24.42;40.50;100285.19;690593;28;1179;-80
2023/06/19 00:07:51;;;;;;;9.10;8.02;;;;;;;24.34;40.61;100259.66;688009;28;1157;-80
2023/06/19 00:08:12;;;;;;;9.55;8.27;;;;;;;24.36;40.57;100264.94;690664;28;1470;-81
2023/06/19 00:08:32;;;;;;;10.05;8.70;;;;;;;24.37;40.71;100274.69;690721;28;1320;-80
2023/06/19 00:08:53;;;;;;;10.43;8.60;;;;;;;24.29;40.39;100261.63;685417;28;1471;-81
2023/06/19 00:09:15;;;;;;;9.57;8.27;;;;;;;24.32;40.44;100272.19;685239;28;1513;-80
2023/06/19 00:09:35;;;;;;;9.20;8.20;;;;;;;24.32;40.60;100266.84;688062;28;1307;-81
2023/06/19 00:09:56;;;;;;;11.90;8.63;;;;;;;24.35;40.50;100272.06;688178;28;1134;-80
2023/06/19 00:10:17;;;;;;;12.27;8.70;;;;;;;24.35;40.50;100273.88;687999;28;968;-80
2023/06/19 00:10:37;;;;;;;12.70;8.68;;;;;;;24.36;40.65;100272.94;685339;28;1225;-81
2023/06/19 00:10:58;;;;;;;10.30;8.60;;;;;;;24.36;40.53;100279.13;685483;28;1344;-81
2023/06/19 00:11:18;;;;;;;11.30;9.00;;;;;;;24.31;40.47;100275.78;686033;28;1154;-81
2023/06/19 00:11:40;;;;;;;11.30;8.90;;;;;;;24.36;40.64;100276.47;688008;28;1472;-81
2023/06/19 00:12:01;;;;;;;11.70;8.35;;;;;;;24.31;40.54;100275.78;690927;28;854;-80
2023/06/19 00:12:22;;;;;;;11.27;7.80;;;;;;;24.29;40.44;100264.28;690679;28;1401;-80
2023/06/19 00:12:43;;;;;;;10.68;7.80;;;;;;;24.34;40.54;100278.31;690941;28;998;-81
2023/06/19 00:13:04;;;;;;;10.50;8.15;;;;;;;24.36;40.77;100288.94;693731;28;1071;-80
2023/06/19 00:13:25;;;;;;;10.75;8.52;;;;;;;24.33;40.82;100281.91;689011;28;1028;-81
2023/06/19 00:13:45;;;;;;;10.93;8.43;;;;;;;24.33;40.61;100281.91;690036;28;1299;-81
2023/06/19 00:14:06;;;;;;;10.60;7.90;;;;;;;24.29;40.65;100274.94;691029;28;1071;-81
2023/06/19 00:14:27;;;;;;;9.40;7.50;;;;;;;24.35;40.67;100281.88;691151;28;967;-80
2023/06/19 00:14:48;;;;;;;9.52;7.68;;;;;;;24.37;40.73;100288.88;690685;28;1218;-80
2023/06/19 00:15:11;;;;;;;9.90;8.10;;;;;;;24.33;40.98;100278.38;688270;28;1068;-81
2023/06/19 00:15:31;;;;;;;10.75;8.50;;;;;;;24.31;40.89;100281.13;688044;28;1159;-80
2023/06/19 00:15:52;;;;;;;11.20;8.37;;;;;;;24.27;40.75;100266.16;688021;28;1277;-80
2023/06/19 00:16:13;;;;;;;11.68;8.27;;;;;;;24.32;40.96;100282.84;685250;28;1780;-81
2023/06/19 00:16:34;;;;;;;10.98;8.02;;;;;;;24.30;40.86;100278.50;692186;28;1208;-81
2023/06/19 00:16:54;;;;;;;10.40;8.20;;;;;;;24.32;41.20;100279.31;690326;28;1238;-81
2023/06/19 00:17:16;;;;;;;12.18;8.30;;;;;;;24.30;40.91;100279.38;690775;28;1094;-80
2023/06/19 00:17:37;;;;;;;12.07;8.43;;;;;;;24.33;41.12;100283.69;688245;28;904;-80
2023/06/19 00:17:59;;;;;;;11.50;8.43;;;;;;;24.30;40.92;100273.16;688503;28;1365;-80
2023/06/19 00:18:20;;;;;;;9.73;8.23;;;;;;;24.28;40.93;100270.53;690683;28;1403;-80
2023/06/19 00:18:40;;;;;;;9.67;8.20;;;;;;;24.30;40.99;100274.06;687970;28;1260;-81
2023/06/19 00:19:03;;;;;;;10.32;8.38;;;;;;;24.23;40.86;100267.22;685432;28;1223;-80
2023/06/19 00:19:24;;;;;;;10.30;8.43;;;;;;;24.30;41.16;100273.16;682388;28;1386;-81
2023/06/19 00:19:44;;;;;;;9.95;8.25;;;;;;;24.24;40.94;100263.59;685092;28;958;-80
2023/06/19 00:20:05;;;;;;;9.27;7.80;;;;;;;24.30;41.17;100284.72;682735;28;1348;-81
2023/06/19 00:20:26;;;;;;;8.85;7.60;;;;;;;24.25;40.99;100276.00;685324;28;945;-81
2023/06/19 00:20:47;;;;;;;9.48;7.88;;;;;;;24.18;41.05;100258.50;685248;28;959;-81
2023/06/19 00:21:08;;;;;;;9.67;8.20;;;;;;;24.23;41.25;100272.53;682929;28;1091;-81
2023/06/19 00:21:29;;;;;;;10.48;8.55;;;;;;;24.20;41.10;100268.19;685394;28;1080;-80
2023/06/19 00:21:50;;;;;;;9.50;8.07;;;;;;;24.18;41.11;100269.16;687953;28;1105;-80
2023/06/19 00:22:11;;;;;;;8.53;7.57;;;;;;;24.22;40.96;100271.66;690137;28;1054;-80
2023/06/19 00:22:32;;;;;;;8.82;7.80;;;;;;;24.19;40.94;100277.13;690647;28;1415;-80
2023/06/19 00:22:53;;;;;;;10.35;7.82;;;;;;;24.24;40.82;100279.59;690916;28;1394;-80
2023/06/19 00:23:16;;;;;;;11.30;8.10;;;;;;;24.20;41.01;100280.63;688728;28;1377;-80
2023/06/19 00:23:37;;;;;;;12.65;7.82;;;;;;;24.16;40.94;100271.03;685461;28;1346;-81
2023/06/19 00:23:58;;;;;;;11.13;7.90;;;;;;;24.16;40.97;100271.03;688219;28;1362;-80
2023/06/19 00:24:18;;;;;;;10.23;8.10;;;;;;;24.13;41.19;100261.34;690593;28;1478;-80
2023/06/19 00:24:39;;;;;;;10.30;8.30;;;;;;;24.22;41.13;100284.97;688029;28;1088;-80
2023/06/19 00:25:00;;;;;;;10.40;8.50;;;;;;;24.13;41.20;100260.47;685532;28;804;-80
2023/06/19 00:25:20;;;;;;;11.97;8.40;;;;;;;24.22;41.20;100276.97;687910;28;1173;-80
2023/06/19 00:25:43;;;;;;;12.38;8.20;;;;;;;24.18;41.03;100274.50;686634;28;1158;-80
2023/06/19 00:26:04;;;;;;;11.63;7.90;;;;;;;24.13;41.08;100264.00;687888;28;1123;-81
2023/06/19 00:26:25;;;;;;;8.52;7.50;;;;;;;24.12;41.01;100261.38;690725;28;995;-80
2023/06/19 00:26:46;;;;;;;9.18;7.63;;;;;;;24.15;40.89;100267.47;687605;28;1129;-80
2023/06/19 00:27:06;;;;;;;9.77;7.90;;;;;;;24.14;40.99;100278.22;688043;28;1910;-81
2023/06/19 00:27:27;;;;;;;10.15;8.10;;;;;;;24.09;41.12;100263.25;685402;28;1169;-81
2023/06/19 00:27:48;;;;;;;9.90;8.30;;;;;;;24.10;41.13;100270.31;687998;28;1366;-81
2023/06/19 00:28:13;;;;;;;10.70;8.03;;;;;;;24.08;41.01;100269.50;688107;28;1273;-80
2023/06/19 00:28:34;;;;;;;10.32;7.88;;;;;;;24.06;41.07;100259.81;687991;28;1026;-80
2023/06/19 00:28:55;;;;;;;11.13;8.27;;;;;;;24.12;41.23;100269.38;688036;28;1306;-80
2023/06/19 00:29:16;;;;;;;10.95;8.25;;;;;;;24.15;41.24;100279.94;687739;28;1265;-80
2023/06/19 00:29:36;;;;;;;11.50;8.80;;;;;;;24.18;41.14;100269.16;687964;28;1296;-81
2023/06/19 00:30:01;;;;;;;10.82;8.30;;;;;;;24.21;41.06;100280.59;690449;28;1287;-80
2023/06/19 00:30:23;;;;;;;10.13;8.27;;;;;;;24.16;40.93;100268.34;688000;28;1286;-80
2023/06/19 00:30:44;;;;;;;10.20;8.05;;;;;;;24.18;41.23;100274.50;682724;29;890;-80
2023/06/19 00:31:06;;;;;;;11.10;8.35;;;;;;;24.18;41.21;100286.03;690810;28;1193;-80
2023/06/19 00:31:27;;;;;;;10.52;8.13;;;;;;;24.19;41.39;100290.44;691002;28;1308;-80
2023/06/19 00:31:48;;;;;;;10.03;8.17;;;;;;;24.10;41.33;100270.31;693654;28;1043;-80
2023/06/19 00:32:09;;;;;;;9.43;8.20;;;;;;;24.07;41.42;100273.09;690930;28;984;-80
2023/06/19 00:32:30;;;;;;;9.68;8.32;;;;;;;24.12;41.45;100277.38;688492;28;1268;-81
2023/06/19 00:32:53;;;;;;;10.20;8.33;;;;;;;24.09;41.33;100271.25;693471;28;1374;-80
2023/06/19 00:33:14;;;;;;;10.60;8.30;;;;;;;24.13;41.60;100277.34;687938;28;1273;-80
2023/06/19 00:33:34;;;;;;;10.98;8.38;;;;;;;24.05;41.49;100272.25;685371;28;1242;-80
2023/06/19 00:33:55;;;;;;;10.30;8.13;;;;;;;24.08;41.61;100273.94;685435;28;1172;-80
2023/06/19 00:34:19;;;;;;;9.80;8.25;;;;;;;24.13;41.54;100281.78;687991;28;1107;-81
2023/06/19 00:34:41;;;;;;;9.85;8.30;;;;;;;24.09;41.48;100287.22;690698;28;1075;-80
2023/06/19 00:35:03;;;;;;;11.20;8.20;;;;;;;24.06;41.61;100275.81;688042;28;1199;-80
2023/06/19 00:35:24;;;;;;;10.68;7.97;;;;;;;24.07;41.57;100278.44;685255;28;1247;-81
2023/06/19 00:35:45;;;;;;;10.45;7.78;;;;;;;24.14;41.54;100283.53;685111;28;1371;-80
2023/06/19 00:36:15;;;;;;;9.65;7.78;;;;;;;24.07;41.77;100283.75;686394;28;1220;-80
2023/06/19 00:36:40;;;;;;;9.70;7.90;;;;;;;24.14;41.60;100288.88;690487;28;1037;-81
2023/06/19 00:37:01;;;;;;;8.90;7.70;;;;;;;24.08;41.65;100285.50;687658;28;770;-80
2023/06/19 00:37:22;;;;;;;10.95;7.80;;;;;;;24.07;41.72;100282.88;682515;29;1219;-80
2023/06/19 00:37:44;;;;;;;11.63;7.90;;;;;;;24.07;41.72;100283.75;682239;29;1342;-80
2023/06/19 00:38:05;;;;;;;10.98;7.90;;;;;;;24.05;41.90;100287.41;685443;28;1027;-81
2023/06/19 00:38:26;;;;;;;8.60;7.60;;;;;;;24.05;41.72;100280.25;690705;28;1055;-80
2023/06/19 00:38:50;;;;;;;8.40;7.50;;;;;;;24.12;41.72;100285.38;690725;28;1366;-81
2023/06/19 00:39:12;;;;;;;9.20;7.90;;;;;;;24.11;41.77;100289.84;688119;28;1138;-80
2023/06/19 00:39:34;;;;;;;9.68;7.90;;;;;;;24.13;41.80;100298.66;687980;28;1263;-80
2023/06/19 00:39:54;;;;;;;9.83;7.93;;;;;;;24.05;41.71;100285.59;685473;28;1119;-81
2023/06/19 00:40:27;;;;;;;9.13;7.80;;;;;;;24.07;42.15;100288.22;687456;28;1184;-81
2023/06/19 00:40:48;;;;;;;11.40;7.95;;;;;;;24.10;41.71;100296.13;690676;28;1237;-80
2023/06/19 00:41:09;;;;;;;10.82;7.70;;;;;;;24.05;41.89;100290.91;688134;28;1151;-81
2023/06/19 00:41:30;;;;;;;10.52;7.97;;;;;;;24.02;41.85;100287.53;687966;28;1133;-80
2023/06/19 00:41:52;;;;;;;9.30;8.13;;;;;;;24.06;42.01;100286.47;685387;28;1110;-81
2023/06/19 00:42:13;;;;;;;9.73;8.10;;;;;;;24.03;41.77;100295.44;685304;28;979;-80
2023/06/19 00:42:34;;;;;;;9.53;7.80;;;;;;;24.04;41.99;100289.19;690629;28;1181;-80
2023/06/19 00:42:55;;;;;;;9.73;7.50;;;;;;;24.09;42.02;100302.34;687996;28;1259;-80
2023/06/19 00:43:17;;;;;;;11.10;7.90;;;;;;;24.02;41.98;100292.84;682534;28;1223;-80
2023/06/19 00:43:38;;;;;;;10.48;7.90;;;;;;;24.05;42.01;100300.72;685294;28;1044;-80
2023/06/19 00:43:58;;;;;;;8.55;7.65;;;;;;;24.03;42.26;100302.59;688182;28;874;-80
2023/06/19 00:44:20;;;;;;;8.52;7.40;;;;;;;24.00;42.10;100294.69;687941;28;1071;-80
2023/06/19 00:44:41;;;;;;;9.15;7.80;;;;;;;23.97;42.27;100285.00;687848;28;1356;-80
2023/06/19 00:45:02;;;;;;;9.55;8.00;;;;;;;24.01;42.19;100299.97;688061;28;1199;-80
2023/06/19 00:45:24;;;;;;;8.80;7.65;;;;;;;23.99;41.94;100290.28;685209;28;1176;-80
2023/06/19 00:45:45;;;;;;;8.65;7.47;;;;;;;23.92;42.35;100287.84;687522;28;1341;-80
2023/06/19 00:46:06;;;;;;;8.48;7.32;;;;;;;23.94;41.95;100291.34;687958;28;1193;-80
2023/06/19 00:46:26;;;;;;;10.43;7.47;;;;;;;24.02;42.05;100307.03;687930;28;1013;-80
2023/06/19 00:46:58;;;;;;;11.60;7.47;;;;;;;24.01;42.08;100304.41;686257;28;958;-80
2023/06/19 00:47:19;;;;;;;11.45;7.75;;;;;;;23.90;42.32;100283.50;693152;28;1918;-80
2023/06/19 00:47:40;;;;;;;9.60;7.70;;;;;;;23.88;42.11;100285.34;693394;28;1156;-80
2023/06/19 00:48:10;;;;;;;8.48;7.50;;;;;;;23.93;42.27;100294.03;693154;28;1386;-80
2023/06/19 00:48:33;;;;;;;10.18;7.68;;;;;;;23.97;42.27;100301.00;693439;28;1185;-80
2023/06/19 00:48:54;;;;;;;10.98;7.90;;;;;;;23.98;42.47;100308.09;693273;28;1279;-80
2023/06/19 00:49:15;;;;;;;9.75;7.28;;;;;;;23.87;42.25;100286.25;687688;28;1377;-80
2023/06/19 00:49:36;;;;;;;9.40;7.40;;;;;;;23.90;41.99;100289.69;685447;28;922;-80
2023/06/19 00:49:56;;;;;;;9.00;7.20;;;;;;;23.87;41.91;100283.59;685513;28;828;-80
2023/06/19 00:50:17;;;;;;;9.50;7.40;;;;;;;23.88;41.99;100285.34;688028;28;977;-80
2023/06/19 00:50:38;;;;;;;9.43;7.43;;;;;;;23.97;41.92;100303.66;688361;28;1038;-80
2023/06/19 00:50:59;;;;;;;9.80;7.63;;;;;;;23.93;42.23;100291.38;690799;28;1365;-79
2023/06/19 00:51:21;;;;;;;8.52;7.28;;;;;;;23.89;42.03;100289.75;690647;28;1188;-80
2023/06/19 00:51:41;;;;;;;9.15;7.00;;;;;;;23.89;41.98;100295.06;690724;28;945;-80
2023/06/19 00:52:02;;;;;;;8.35;6.50;;;;;;;23.89;42.17;100295.06;693500;28;1172;-80
2023/06/19 00:52:23;;;;;;;9.13;6.68;;;;;;;23.90;42.03;100292.34;690482;28;1269;-80
2023/06/19 00:52:44;;;;;;;8.70;6.80;;;;;;;23.89;42.00;100300.41;690727;28;1321;-81
2023/06/19 00:53:07;;;;;;;8.93;7.10;;;;;;;23.92;42.20;100305.63;690796;28;1202;-80
2023/06/19 00:53:30;;;;;;;7.75;6.70;;;;;;;23.92;41.99;100300.31;693298;28;944;-80
2023/06/19 00:53:52;;;;;;;7.80;6.70;;;;;;;23.90;42.19;100297.69;692444;28;1297;-81
2023/06/19 00:54:13;;;;;;;7.80;6.78;;;;;;;23.87;42.22;100291.59;690647;28;1128;-79
2023/06/19 00:54:33;;;;;;;7.80;7.00;;;;;;;23.84;42.37;100287.25;685256;28;1163;-80
2023/06/19 00:54:55;;;;;;;7.85;7.03;;;;;;;23.86;42.29;100295.19;684684;28;1384;-81
2023/06/19 00:55:17;;;;;;;7.90;6.80;;;;;;;23.90;42.08;100302.16;685239;28;1104;-80
2023/06/19 00:55:37;;;;;;;8.02;7.10;;;;;;;23.84;42.21;100297.91;687936;28;1368;-80
2023/06/19 00:55:59;;;;;;;9.63;7.25;;;;;;;23.91;42.45;100309.22;690750;28;1536;-79
2023/06/19 00:56:19;;;;;;;9.95;7.22;;;;;;;23.83;42.24;100297.03;687927;28;1279;-80
2023/06/19 00:56:41;;;;;;;9.50;7.00;;;;;;;23.86;42.58;100303.19;688052;28;1377;-80
2023/06/19 00:57:02;;;;;;;8.93;7.25;;;;;;;23.89;42.66;100303.06;690299;28;1003;-80
2023/06/19 00:57:23;;;;;;;8.55;7.28;;;;;;;23.84;42.41;100303.22;685761;28;1355;-80
2023/06/19 00:57:45;;;;;;;9.10;7.47;;;;;;;23.82;42.49;100297.09;685395;28;981;-80
2023/06/19 00:58:06;;;;;;;8.88;7.55;;;;;;;23.87;42.46;100307.59;688076;28;1215;-80
2023/06/19 00:58:26;;;;;;;10.07;7.80;;;;;;;23.77;42.54;100296.38;690013;28;1184;-80
2023/06/19 00:58:47;;;;;;;9.30;7.25;;;;;;;23.76;42.41;100295.50;687866;28;1185;-80
2023/06/19 00:59:16;;;;;;;8.70;6.90;;;;;;;23.76;42.75;100295.50;688418;28;1116;-80
2023/06/19 00:59:38;;;;;;;8.25;6.95;;;;;;;23.81;42.78;100304.19;686938;28;1787;-80
2023/06/19 00:59:59;;;;;;;9.07;7.50;;;;;;;23.72;42.92;100285.03;684970;28;1265;-80
2023/06/19 01:00:20;;;;;;;9.37;7.70;;;;;;;23.77;43.27;100302.59;687504;28;1645;-80
2023/06/19 01:00:41;;;;;;;9.50;7.70;;;;;;;23.71;43.01;100288.59;687912;28;1106;-80
2023/06/19 01:01:02;;;;;;;9.13;7.47;;;;;;;23.75;42.83;100307.09;688106;28;810;-80
2023/06/19 01:01:26;;;;;;;9.18;7.28;;;;;;;23.79;42.82;100310.53;690644;28;976;-80
2023/06/19 01:01:46;;;;;;;9.73;7.28;;;;;;;23.73;42.84;100305.41;687716;28;1276;-81
2023/06/19 01:02:07;;;;;;;9.30;7.20;;;;;;;23.78;42.98;100311.47;685372;28;1273;-81
2023/06/19 01:02:28;;;;;;;8.30;7.30;;;;;;;23.71;42.85;100302.78;688116;28;976;-81
2023/06/19 01:02:49;;;;;;;8.93;7.80;;;;;;;23.69;43.12;100299.28;690716;28;944;-81
2023/06/19 01:03:10;;;;;;;9.10;7.90;;;;;;;23.66;43.18;100299.38;695983;28;1139;-81
2023/06/19 01:03:30;;;;;;;8.57;7.43;;;;;;;23.72;42.99;100309.00;690020;28;1298;-80
2023/06/19 01:03:51;;;;;;;8.25;6.90;;;;;;;23.69;43.17;100299.28;685213;28;1277;-80
2023/06/19 01:04:12;;;;;;;8.43;6.90;;;;;;;23.64;42.94;100295.91;688076;28;1108;-81
2023/06/19 01:04:33;;;;;;;9.73;7.10;;;;;;;23.65;43.14;100302.97;690633;28;1097;-80
2023/06/19 01:04:54;;;;;;;9.53;7.37;;;;;;;23.69;43.39;100315.25;693514;28;803;-80
2023/06/19 01:05:17;;;;;;;10.10;7.60;;;;;;;23.70;43.49;100317.00;685420;28;1400;-81
2023/06/19 01:05:37;;;;;;;9.32;7.60;;;;;;;23.62;43.60;100308.41;687976;28;1433;-81
2023/06/19 01:06:00;;;;;;;9.65;7.32;;;;;;;23.65;43.58;100314.50;687436;28;1224;-81
2023/06/19 01:06:24;;;;;;;9.25;7.07;;;;;;;23.61;43.67;100309.34;690459;28;1184;-80
2023/06/19 01:07:00;;;;;;;8.75;6.82;;;;;;;23.62;43.55;100308.41;687466;28;972;-80
2023/06/19 01:07:33;;;;;;;7.70;6.78;;;;;;;23.51;43.79;100301.66;687935;28;1507;-80
2023/06/19 01:07:54;;;;;;;8.02;7.20;;;;;;;23.62;43.74;100322.59;688011;28;1904;-80
2023/06/19 01:08:37;;;;;;;7.93;7.13;;;;;;;23.62;44.05;100319.06;688049;28;1108;-80
2023/06/19 01:09:02;;;;;;;8.48;7.05;;;;;;;23.53;43.91;100299.81;690543;28;952;-80
2023/06/19 01:09:37;;;;;;;9.13;6.90;;;;;;;23.54;44.14;100306.88;688069;28;1396;-80
2023/06/19 01:10:04;;;;;;;10.43;7.10;;;;;;;23.50;44.23;100305.25;685457;28;861;-81
2023/06/19 01:10:36;;;;;;;9.98;7.20;;;;;;;23.54;44.02;100317.53;687769;28;1264;-81
2023/06/19 01:11:00;;;;;;;8.90;6.82;;;;;;;23.50;44.03;100305.25;690337;28;1328;-81
2023/06/19 01:11:24;;;;;;;8.93;6.80;;;;;;;23.44;44.13;100294.78;687812;28;1462;-80
2023/06/19 01:11:59;;;;;;;8.80;7.43;;;;;;;23.55;44.23;100319.25;685255;28;1060;-80
2023/06/19 01:12:28;;;;;;;9.50;7.65;;;;;;;23.51;44.31;100312.31;685174;28;961;-80
2023/06/19 01:13:00;;;;;;;10.10;7.47;;;;;;;23.54;44.60;100317.53;685196;28;1024;-80
2023/06/19 01:13:31;;;;;;;9.43;7.10;;;;;;;23.56;44.35;100313.00;685178;28;1087;-81
2023/06/19 01:13:59;;;;;;;8.55;6.93;;;;;;;23.54;44.64;100320.19;685201;28;1181;-81
2023/06/19 01:14:32;;;;;;;10.40;6.90;;;;;;;23.45;44.50;100299.19;687908;28;1169;-80
2023/06/19 01:15:02;;;;;;;10.40;6.85;;;;;;;23.52;44.49;100314.03;688039;28;835;-81
2023/06/19 01:15:25;;;;;;;8.27;7.10;;;;;;;23.56;44.80;100315.66;685184;28;1021;-80
2023/06/19 01:15:47;;;;;;;7.90;7.10;;;;;;;23.54;44.81;100311.31;690211;28;1251;-80
2023/06/19 01:16:10;;;;;;;8.70;7.38;;;;;;;23.58;44.75;100309.41;688027;28;1257;-81
2023/06/19 01:16:31;;;;;;;8.45;7.10;;;;;;;23.51;44.64;100295.44;688059;28;1367;-81
2023/06/19 01:16:52;;;;;;;8.32;6.88;;;;;;;23.55;44.70;100308.59;685851;28;843;-80
2023/06/19 01:17:14;;;;;;;8.15;7.00;;;;;;;23.53;44.89;100307.78;690598;28;960;-81
2023/06/19 01:17:35;;;;;;;8.50;7.35;;;;;;;23.61;44.73;100310.19;687879;28;1227;-80
2023/06/19 01:17:58;;;;;;;8.13;7.13;;;;;;;23.59;44.98;100306.72;690616;28;1272;-80
2023/06/19 01:18:20;;;;;;;9.20;6.93;;;;;;;23.58;45.01;100312.06;687779;28;1124;-80
2023/06/19 01:18:42;;;;;;;9.45;6.97;;;;;;;23.53;44.89;100298.91;688044;28;1293;-80
2023/06/19 01:19:05;;;;;;;9.38;6.80;;;;;;;23.60;44.90;100304.94;687801;28;1172;-80
2023/06/19 01:19:27;;;;;;;7.78;6.60;;;;;;;23.60;44.72;100310.25;682502;29;1068;-80
2023/06/19 01:19:48;;;;;;;7.40;6.10;;;;;;;23.62;45.02;100308.41;682612;28;959;-81
2023/06/19 01:20:11;;;;;;;7.80;6.40;;;;;;;23.53;44.86;100294.47;684878;28;1288;-81
2023/06/19 01:20:33;;;;;;;8.05;6.63;;;;;;;23.51;44.93;100296.34;685202;28;1334;-81
2023/06/19 01:20:56;;;;;;;8.40;6.95;;;;;;;23.45;45.07;100287.66;688031;28;902;-80
2023/06/19 01:21:19;;;;;;;8.27;6.80;;;;;;;23.56;45.22;100304.16;690515;28;1558;-80
2023/06/19 01:21:39;;;;;;;8.38;7.00;;;;;;;23.56;45.18;100310.34;687760;28;1350;-80
2023/06/19 01:22:03;;;;;;;7.97;6.70;;;;;;;23.55;45.34;100302.44;688172;28;753;-80
2023/06/19 01:22:32;;;;;;;8.75;7.20;;;;;;;23.56;45.46;100307.69;685223;28;1093;-80
2023/06/19 01:22:56;;;;;;;9.52;7.88;;;;;;;23.47;45.10;100294.69;685346;28;862;-81
2023/06/19 01:23:17;;;;;;;9.10;7.50;;;;;;;23.47;45.25;100293.81;687684;28;1102;-80
2023/06/19 01:23:37;;;;;;;8.82;7.10;;;;;;;23.46;45.30;100287.63;687716;28;1459;-81
2023/06/19 01:23:58;;;;;;;8.80;6.75;;;;;;;23.50;45.24;100305.25;693507;28;1387;-81
2023/06/19 01:24:19;;;;;;;8.60;7.00;;;;;;;23.43;45.29;100293.06;690290;28;1190;-81
2023/06/19 01:24:40;;;;;;;10.52;7.20;;;;;;;23.46;45.49;100298.28;693237;28;868;-80
2023/06/19 01:25:04;;;;;;;10.15;7.20;;;;;;;23.52;45.37;100308.72;690214;28;1151;-81
2023/06/19 01:25:25;;;;;;;10.07;6.93;;;;;;;23.49;45.59;100299.97;687817;28;1115;-80
2023/06/19 01:25:45;;;;;;;8.70;6.75;;;;;;;23.51;45.78;100304.31;690536;28;981;-81
2023/06/19 01:26:07;;;;;;;8.27;6.90;;;;;;;23.51;45.40;100306.09;693339;28;1080;-80
2023/06/19 01:26:27;;;;;;;8.35;7.10;;;;;;;23.44;45.48;100283.25;690165;28;1253;-80
2023/06/19 01:26:49;;;;;;;8.35;7.45;;;;;;;23.51;45.71;100301.66;687286;28;1237;-80
2023/06/19 01:27:10;;;;;;;8.32;7.18;;;;;;;23.44;45.59;100300.13;687920;28;1977;-79
2023/06/19 01:27:33;;;;;;;8.68;7.20;;;;;;;23.53;45.67;100306.91;687786;28;1158;-81
2023/06/19 01:27:54;;;;;;;8.68;7.13;;;;;;;23.40;45.81;100283.38;687929;28;1215;-80
2023/06/19 01:28:15;;;;;;;8.65;7.00;;;;;;;23.45;45.54;100288.53;684998;28;1390;-80
2023/06/19 01:28:37;;;;;;;8.55;6.97;;;;;;;23.39;45.89;100283.41;685161;28;968;-80
2023/06/19 01:28:58;;;;;;;9.15;7.18;;;;;;;23.45;45.77;100293.88;687887;28;1263;-80
2023/06/19 01:29:19;;;;;;;8.50;6.95;;;;;;;23.49;45.79;100294.63;682318;29;1146;-80
2023/06/19 01:29:39;;;;;;;8.30;6.90;;;;;;;23.42;45.86;100285.97;682486;28;1225;-80
2023/06/19 01:30:03;;;;;;;8.13;6.78;;;;;;;23.47;45.70;100294.69;687169;28;1285;-80
2023/06/19 01:30:24;;;;;;;8.20;6.90;;;;;;;23.47;45.94;100294.69;685210;28;1240;-80
2023/06/19 01:30:46;;;;;;;8.52;6.85;;;;;;;23.38;46.05;100284.34;687905;28;893;-81
2023/06/19 01:31:25;;;;;;;9.20;6.53;;;;;;;23.39;45.84;100283.41;687767;28;1006;-81
2023/06/19 01:31:54;;;;;;;9.48;6.80;;;;;;;23.38;45.99;100284.34;687773;28;1268;-81
2023/06/19 01:32:29;;;;;;;8.90;7.10;;;;;;;23.38;46.22;100287.00;690582;28;1012;-80
2023/06/19 01:33:10;;;;;;;9.00;7.30;;;;;;;23.44;46.04;100292.13;684854;28;882;-80
2023/06/19 01:33:33;;;;;;;9.50;7.68;;;;;;;23.44;46.12;100296.56;687163;28;1094;-80
2023/06/19 01:33:56;;;;;;;8.82;7.10;;;;;;;23.42;46.50;100296.63;693945;28;1326;-80
2023/06/19 01:34:20;;;;;;;8.13;7.10;;;;;;;23.36;46.52;100286.19;695967;28;1184;-80
2023/06/19 01:34:42;;;;;;;8.95;7.43;;;;;;;23.32;46.29;100279.22;695983;28;908;-80
2023/06/19 01:35:04;;;;;;;9.48;7.50;;;;;;;23.40;46.36;100293.16;690347;28;1188;-80
2023/06/19 01:35:28;;;;;;;9.73;7.13;;;;;;;23.32;46.23;100285.44;690486;28;1040;-80
2023/06/19 01:35:50;;;;;;;8.40;6.70;;;;;;;23.32;46.66;100281.88;693191;28;1190;-81
2023/06/19 01:36:12;;;;;;;8.82;7.10;;;;;;;23.30;46.27;100279.25;689869;28;1344;-80
2023/06/19 01:36:35;;;;;;;8.88;7.35;;;;;;;23.31;46.69;100280.16;690411;28;1337;-80
2023/06/19 01:36:57;;;;;;;8.93;7.40;;;;;;;23.38;46.31;100289.66;695132;28;1183;-81
2023/06/19 01:37:18;;;;;;;8.38;7.20;;;;;;;23.38;46.53;100295.88;690365;28;1129;-80
2023/06/19 01:37:41;;;;;;;8.23;7.28;;;;;;;23.34;46.57;100288.91;687919;28;880;-80
2023/06/19 01:38:03;;;;;;;8.40;6.95;;;;;;;23.39;46.68;100296.72;693173;28;1126;-80
2023/06/19 01:38:28;;;;;;;8.50;7.00;;;;;;;23.38;46.71;100300.31;693091;28;1135;-81
2023/06/19 01:38:50;;;;;;;8.57;7.10;;;;;;;23.36;46.55;100297.69;693352;28;968;-80
2023/06/19 01:39:18;;;;;;;8.63;7.00;;;;;;;23.35;46.64;100289.78;690637;28;1116;-81
2023/06/19 01:39:41;;;;;;;8.60;6.80;;;;;;;23.28;46.66;100281.13;691006;28;1095;-81
2023/06/19 01:40:09;;;;;;;8.23;7.00;;;;;;;23.32;46.82;100287.22;690700;28;1158;-80
2023/06/19 01:40:31;;;;;;;8.75;7.32;;;;;;;23.28;46.70;100287.31;687923;28;1138;-80
2023/06/19 01:40:54;;;;;;;8.27;7.00;;;;;;;23.36;46.80;100299.50;687913;28;1133;-80
2023/06/19 01:41:16;;;;;;;8.02;6.65;;;;;;;23.30;46.74;100294.38;690551;28;991;-80
2023/06/19 01:41:38;;;;;;;7.32;6.40;;;;;;;23.27;46.66;100282.03;693320;28;1190;-80
2023/06/19 01:41:59;;;;;;;7.40;6.40;;;;;;;23.31;46.88;100296.13;685420;28;1370;-80
2023/06/19 01:42:20;;;;;;;7.90;6.50;;;;;;;23.32;46.76;100295.19;685267;28;1197;-80
2023/06/19 01:42:42;;;;;;;8.65;6.70;;;;;;;23.37;46.61;100304.75;688293;28;1218;-80
2023/06/19 01:43:05;;;;;;;10.20;7.10;;;;;;;23.34;46.84;100299.56;690589;28;1373;-81
2023/06/19 01:43:28;;;;;;;9.52;7.00;;;;;;;23.36;46.62;100303.03;690511;28;975;-80
2023/06/19 01:43:49;;;;;;;7.80;6.70;;;;;;;23.36;46.48;100303.03;690523;28;995;-80
2023/06/19 01:44:13;;;;;;;7.80;6.88;;;;;;;23.35;46.56;100295.97;693371;28;1080;-80
2023/06/19 01:44:33;;;;;;;8.57;7.20;;;;;;;23.27;46.89;100285.59;687807;28;1220;-80
2023/06/19 01:44:55;;;;;;;8.77;7.20;;;;;;;23.36;46.72;100302.16;693426;28;1247;-80
2023/06/19 01:45:16;;;;;;;8.68;7.00;;;;;;;23.25;46.72;100292.72;690325;28;1255;-80
2023/06/19 01:45:37;;;;;;;7.85;6.70;;;;;;;23.30;46.78;100295.22;690457;28;1406;-81
2023/06/19 01:45:59;;;;;;;7.50;6.50;;;;;;;23.31;46.91;100299.66;690517;28;1244;-80
2023/06/19 01:46:19;;;;;;;7.53;6.72;;;;;;;23.27;46.82;100292.69;690556;28;1078;-80
2023/06/19 01:46:40;;;;;;;8.30;7.07;;;;;;;23.25;47.06;100295.38;687903;28;1113;-80